createdAt,value
2018-03-19T00:00:57.605Z,50.37
2018-03-19T00:01:57.584Z,50.56
2018-03-19T00:02:57.581Z,50.65
2018-03-19T00:03:57.585Z,50.56
2018-03-19T00:04:57.578Z,50.46
2018-03-19T00:05:57.561Z,50.56
2018-03-19T00:06:57.569Z,50.65
2018-03-19T00:07:57.559Z,50.84
2018-03-19T00:08:57.553Z,50.27
2018-03-19T00:09:57.661Z,50.46
2018-03-19T00:10:57.543Z,50.56
2018-03-19T00:11:57.540Z,50.75
2018-03-19T00:12:57.528Z,50.65
2018-03-19T00:13:57.537Z,51.03
2018-03-19T00:14:57.526Z,51.22
2018-03-19T00:15:57.508Z,50.94
2018-03-19T00:16:57.514Z,51.22
2018-03-19T00:17:57.582Z,51.13
2018-03-19T00:18:57.509Z,51.13
2018-03-19T00:19:57.498Z,51.13
2018-03-19T00:20:57.481Z,51.32
2018-03-19T00:21:57.496Z,51.69
2018-03-19T00:22:57.482Z,51.79
2018-03-19T00:23:57.476Z,51.79
2018-03-19T00:24:57.477Z,51.98
2018-03-19T00:25:57.465Z,51.79
2018-03-19T00:26:57.462Z,51.69
2018-03-19T00:27:57.455Z,51.98
2018-03-19T00:28:57.452Z,51.13
2018-03-19T00:29:57.447Z,50.84
2018-03-19T00:30:57.440Z,51.32
2018-03-19T00:31:57.449Z,51.22
2018-03-19T00:32:57.433Z,50.94
2018-03-19T00:33:57.429Z,51.22
2018-03-19T00:34:57.425Z,51.13
2018-03-19T00:35:57.433Z,50.94
2018-03-19T00:36:57.419Z,51.03
2018-03-19T00:37:57.392Z,51.13
2018-03-19T00:38:57.398Z,50.75
2018-03-19T00:39:57.397Z,50.27
2018-03-19T00:40:57.391Z,50.94
2018-03-19T00:41:57.385Z,51.13
2018-03-19T00:42:57.380Z,51.03
2018-03-19T00:43:58.052Z,51.03
2018-03-19T00:44:57.368Z,51.03
2018-03-19T00:45:57.368Z,51.22
2018-03-19T00:46:57.411Z,50.84
2018-03-19T00:47:57.359Z,51.13
2018-03-19T00:48:57.362Z,50.65
2018-03-19T00:49:57.356Z,50.37
2018-03-19T00:50:57.337Z,51.03
2018-03-19T00:51:57.337Z,50.91
2018-03-19T00:52:57.336Z,51.10
2018-03-19T00:53:57.319Z,51.32
2018-03-19T00:54:57.326Z,51.22
2018-03-19T00:55:57.319Z,51.10
2018-03-19T00:56:57.313Z,51.20
2018-03-19T00:57:57.310Z,50.82
2018-03-19T00:58:57.306Z,51.03
2018-03-19T00:59:58.050Z,51.10
2018-03-19T01:00:57.317Z,51.22
2018-03-19T01:01:57.291Z,51.88
2018-03-19T01:02:57.272Z,51.48
2018-03-19T01:03:57.278Z,51.86
2018-03-19T01:04:57.272Z,51.86
2018-03-19T01:05:57.269Z,51.13
2018-03-19T01:06:57.266Z,51.32
2018-03-19T01:07:57.251Z,51.20
2018-03-19T01:08:57.251Z,51.39
2018-03-19T01:09:57.251Z,51.39
2018-03-19T01:10:57.242Z,51.88
2018-03-19T01:11:57.238Z,51.86
2018-03-19T01:12:58.048Z,51.86
2018-03-19T01:13:57.233Z,51.86
2018-03-19T01:14:57.222Z,51.95
2018-03-19T01:15:57.219Z,51.76
2018-03-19T01:16:57.204Z,51.76
2018-03-19T01:17:57.203Z,51.67
2018-03-19T01:18:57.205Z,51.69
2018-03-19T01:19:57.206Z,51.67
2018-03-19T01:20:57.219Z,51.67
2018-03-19T01:21:57.185Z,51.95
2018-03-19T01:22:57.183Z,51.86
2018-03-19T01:23:57.174Z,51.86
2018-03-19T01:24:57.161Z,51.76
2018-03-19T01:25:57.169Z,51.67
2018-03-19T01:26:57.157Z,51.86
2018-03-19T01:27:57.155Z,51.67
2018-03-19T01:28:57.136Z,51.76
2018-03-19T01:29:57.145Z,51.39
2018-03-19T01:30:57.135Z,51.57
2018-03-19T01:31:57.131Z,51.39
2018-03-19T01:32:57.120Z,51.67
2018-03-19T01:33:58.053Z,51.76
2018-03-19T01:34:57.120Z,51.95
2018-03-19T01:35:57.112Z,51.86
2018-03-19T01:36:57.110Z,51.86
2018-03-19T01:37:57.099Z,51.57
2018-03-19T01:38:57.096Z,51.67
2018-03-19T01:39:57.087Z,51.48
2018-03-19T01:40:57.087Z,51.67
2018-03-19T01:41:57.075Z,52.23
2018-03-19T01:42:57.078Z,51.76
2018-03-19T01:43:57.065Z,51.39
2018-03-19T01:44:57.058Z,51.67
2018-03-19T01:45:57.065Z,51.67
2018-03-19T01:46:57.054Z,51.86
2018-03-19T01:47:57.050Z,51.67
2018-03-19T01:48:57.043Z,51.48
2018-03-19T01:49:57.041Z,51.57
2018-03-19T01:50:57.024Z,51.86
2018-03-19T01:51:57.047Z,51.76
2018-03-19T01:52:57.024Z,51.86
2018-03-19T01:53:57.016Z,52.14
2018-03-19T01:54:57.018Z,51.95
2018-03-19T01:55:57.008Z,52.14
2018-03-19T01:56:57.001Z,51.86
2018-03-19T01:57:57.002Z,52.04
2018-03-19T01:58:56.991Z,52.42
2018-03-19T01:59:56.982Z,53.37
2018-03-19T02:00:57.016Z,53.18
2018-03-19T02:01:56.989Z,52.89
2018-03-19T02:02:56.975Z,52.80
2018-03-19T02:03:56.965Z,52.70
2018-03-19T02:04:56.958Z,52.51
2018-03-19T02:05:56.962Z,52.42
2018-03-19T02:06:56.950Z,53.18
2018-03-19T02:07:57.051Z,53.27
2018-03-19T02:08:56.947Z,52.99
2018-03-19T02:09:57.550Z,52.99
2018-03-19T02:10:56.932Z,53.18
2018-03-19T02:11:56.934Z,53.08
2018-03-19T02:12:56.916Z,53.27
2018-03-19T02:13:56.911Z,53.08
2018-03-19T02:14:56.907Z,53.08
2018-03-19T02:15:56.908Z,53.08
2018-03-19T02:16:56.903Z,53.18
2018-03-19T02:17:56.887Z,53.18
2018-03-19T02:18:56.887Z,53.18
2018-03-19T02:19:56.886Z,53.46
2018-03-19T02:20:56.877Z,53.27
2018-03-19T02:21:56.872Z,53.37
2018-03-19T02:22:56.864Z,53.46
2018-03-19T02:23:56.878Z,53.46
2018-03-19T02:24:56.852Z,53.65
2018-03-19T02:25:56.850Z,53.37
2018-03-19T02:26:56.846Z,53.65
2018-03-19T02:27:56.852Z,53.75
2018-03-19T02:28:56.836Z,53.65
2018-03-19T02:29:56.831Z,53.75
2018-03-19T02:30:56.830Z,54.13
2018-03-19T02:31:56.815Z,53.84
2018-03-19T02:32:56.819Z,53.56
2018-03-19T02:33:56.811Z,53.75
2018-03-19T02:34:56.790Z,53.56
2018-03-19T02:35:56.813Z,54.03
2018-03-19T02:36:56.792Z,53.65
2018-03-19T02:37:56.786Z,53.94
2018-03-19T02:38:56.781Z,53.84
2018-03-19T02:39:56.775Z,53.84
2018-03-19T02:40:56.801Z,54.03
2018-03-19T02:41:56.758Z,54.03
2018-03-19T02:42:56.758Z,54.22
2018-03-19T02:43:56.760Z,54.03
2018-03-19T02:44:56.746Z,54.32
2018-03-19T02:45:56.747Z,54.13
2018-03-19T02:46:56.767Z,54.69
2018-03-19T02:47:56.740Z,54.79
2018-03-19T02:48:56.733Z,54.97
2018-03-19T02:49:56.720Z,54.88
2018-03-19T02:50:56.729Z,54.60
2018-03-19T02:51:56.752Z,54.60
2018-03-19T02:52:56.698Z,54.97
2018-03-19T02:53:56.701Z,54.88
2018-03-19T02:54:56.693Z,54.69
2018-03-19T02:55:56.692Z,54.32
2018-03-19T02:56:56.698Z,54.50
2018-03-19T02:57:56.704Z,54.22
2018-03-19T02:58:56.679Z,54.60
2018-03-19T02:59:56.669Z,54.69
2018-03-19T03:00:56.663Z,54.88
2018-03-19T03:01:56.652Z,54.69
2018-03-19T03:02:56.654Z,54.50
2018-03-19T03:03:56.648Z,54.69
2018-03-19T03:04:56.628Z,54.97
2018-03-19T03:05:56.638Z,54.79
2018-03-19T03:06:56.636Z,54.88
2018-03-19T03:07:56.631Z,55.07
2018-03-19T03:08:56.626Z,54.97
2018-03-19T03:09:56.619Z,55.26
2018-03-19T03:10:57.554Z,55.35
2018-03-19T03:11:56.598Z,55.16
2018-03-19T03:12:56.601Z,55.54
2018-03-19T03:13:56.598Z,55.63
2018-03-19T03:14:56.603Z,55.35
2018-03-19T03:15:56.588Z,55.92
2018-03-19T03:16:56.587Z,55.92
2018-03-19T03:17:56.575Z,56.11
2018-03-19T03:18:56.560Z,55.92
2018-03-19T03:19:56.562Z,55.73
2018-03-19T03:20:56.571Z,55.92
2018-03-19T03:21:56.568Z,55.92
2018-03-19T03:22:56.555Z,55.63
2018-03-19T03:23:56.539Z,55.54
2018-03-19T03:24:56.538Z,55.82
2018-03-19T03:25:56.533Z,55.54
2018-03-19T03:26:56.540Z,55.54
2018-03-19T03:27:56.513Z,55.61
2018-03-19T03:28:56.513Z,55.63
2018-03-19T03:29:56.515Z,55.51
2018-03-19T03:30:56.518Z,55.82
2018-03-19T03:31:56.520Z,56.30
2018-03-19T03:32:56.498Z,56.27
2018-03-19T03:33:56.493Z,55.92
2018-03-19T03:34:56.487Z,56.36
2018-03-19T03:35:56.485Z,56.55
2018-03-19T03:36:56.468Z,56.46
2018-03-19T03:37:56.471Z,56.08
2018-03-19T03:38:56.464Z,56.27
2018-03-19T03:39:56.482Z,56.96
2018-03-19T03:40:56.461Z,57.21
2018-03-19T03:41:56.471Z,56.74
2018-03-19T03:42:56.450Z,57.12
2018-03-19T03:43:56.433Z,57.31
2018-03-19T03:44:56.557Z,57.40
2018-03-19T03:45:56.421Z,57.21
2018-03-19T03:46:56.428Z,57.40
2018-03-19T03:47:56.447Z,57.50
2018-03-19T03:48:56.407Z,57.21
2018-03-19T03:49:56.413Z,57.97
2018-03-19T03:50:56.409Z,57.78
2018-03-19T03:51:56.417Z,57.50
2018-03-19T03:52:56.393Z,57.78
2018-03-19T03:53:56.380Z,57.59
2018-03-19T03:54:56.384Z,57.78
2018-03-19T03:55:56.365Z,57.87
2018-03-19T03:56:56.380Z,57.97
2018-03-19T03:57:56.364Z,57.87
2018-03-19T03:58:56.353Z,57.97
2018-03-19T03:59:56.351Z,57.97
2018-03-19T04:00:56.353Z,57.97
2018-03-19T04:01:56.358Z,58.06
2018-03-19T04:02:56.327Z,57.87
2018-03-19T04:03:56.332Z,57.87
2018-03-19T04:04:56.329Z,57.87
2018-03-19T04:05:56.325Z,57.97
2018-03-19T04:06:56.311Z,58.34
2018-03-19T04:07:56.307Z,58.82
2018-03-19T04:08:56.303Z,58.72
2018-03-19T04:09:56.294Z,58.53
2018-03-19T04:10:56.276Z,58.72
2018-03-19T04:11:56.291Z,58.72
2018-03-19T04:12:56.278Z,58.53
2018-03-19T04:13:57.068Z,58.25
2018-03-19T04:14:56.264Z,58.44
2018-03-19T04:15:56.260Z,58.44
2018-03-19T04:16:56.247Z,58.72
2018-03-19T04:17:56.253Z,58.53
2018-03-19T04:18:56.252Z,58.53
2018-03-19T04:19:56.243Z,58.44
2018-03-19T04:20:56.238Z,58.72
2018-03-19T04:21:56.234Z,58.63
2018-03-19T04:22:56.231Z,58.91
2018-03-19T04:23:56.220Z,58.53
2018-03-19T04:24:56.218Z,58.91
2018-03-19T04:25:56.205Z,58.63
2018-03-19T04:26:56.220Z,58.53
2018-03-19T04:27:56.193Z,58.82
2018-03-19T04:28:56.188Z,57.78
2018-03-19T04:29:56.185Z,58.06
2018-03-19T04:30:56.174Z,57.87
2018-03-19T04:31:56.180Z,58.06
2018-03-19T04:32:56.169Z,58.63
2018-03-19T04:33:56.175Z,58.82
2018-03-19T04:34:56.156Z,58.82
2018-03-19T04:35:56.153Z,58.82
2018-03-19T04:36:56.154Z,57.68
2018-03-19T04:37:56.186Z,57.68
2018-03-19T04:38:56.139Z,57.59
2018-03-19T04:39:56.128Z,57.50
2018-03-19T04:40:56.132Z,57.68
2018-03-19T04:41:56.128Z,58.44
2018-03-19T04:42:56.115Z,57.68
2018-03-19T04:43:56.108Z,58.15
2018-03-19T04:44:56.108Z,58.06
2018-03-19T04:45:56.098Z,57.68
2018-03-19T04:46:56.095Z,58.06
2018-03-19T04:47:56.087Z,57.78
2018-03-19T04:48:56.099Z,58.06
2018-03-19T04:49:56.084Z,58.06
2018-03-19T04:50:57.054Z,57.78
2018-03-19T04:51:56.066Z,57.78
2018-03-19T04:52:56.552Z,57.78
2018-03-19T04:53:56.079Z,58.15
2018-03-19T04:54:56.038Z,58.34
2018-03-19T04:55:56.039Z,57.87
2018-03-19T04:56:56.053Z,58.15
2018-03-19T04:57:56.032Z,57.87
2018-03-19T04:58:56.028Z,58.06
2018-03-19T04:59:56.017Z,58.15
2018-03-19T05:00:56.015Z,58.15
2018-03-19T05:01:56.002Z,58.25
2018-03-19T05:02:56.004Z,58.15
2018-03-19T05:03:55.998Z,57.78
2018-03-19T05:04:55.990Z,57.78
2018-03-19T05:05:56.007Z,57.87
2018-03-19T05:06:56.554Z,57.78
2018-03-19T05:07:55.979Z,57.78
2018-03-19T05:08:55.977Z,57.78
2018-03-19T05:09:55.967Z,58.06
2018-03-19T05:10:55.957Z,57.97
2018-03-19T05:11:55.946Z,58.15
2018-03-19T05:12:55.954Z,57.87
2018-03-19T05:13:55.949Z,57.97
2018-03-19T05:14:55.962Z,57.97
2018-03-19T05:15:55.930Z,58.72
2018-03-19T05:16:55.930Z,58.72
2018-03-19T05:17:55.919Z,58.72
2018-03-19T05:18:55.921Z,58.72
2018-03-19T05:19:55.906Z,58.63
2018-03-19T05:20:55.908Z,58.53
2018-03-19T05:21:55.894Z,58.63
2018-03-19T05:22:55.894Z,58.53
2018-03-19T05:23:55.893Z,58.34
2018-03-19T05:24:55.883Z,58.53
2018-03-19T05:25:55.877Z,58.72
2018-03-19T05:26:55.871Z,58.44
2018-03-19T05:27:55.874Z,58.44
2018-03-19T05:28:55.857Z,58.91
2018-03-19T05:29:55.853Z,58.63
2018-03-19T05:30:55.852Z,58.53
2018-03-19T05:31:55.841Z,58.63
2018-03-19T05:32:55.828Z,58.53
2018-03-19T05:33:55.834Z,58.34
2018-03-19T05:34:55.813Z,58.53
2018-03-19T05:35:55.828Z,58.72
2018-03-19T05:36:55.824Z,58.53
2018-03-19T05:37:55.810Z,58.82
2018-03-19T05:38:55.806Z,58.82
2018-03-19T05:39:55.796Z,58.44
2018-03-19T05:40:56.556Z,59.10
2018-03-19T05:41:55.788Z,58.72
2018-03-19T05:42:55.778Z,58.82
2018-03-19T05:43:55.774Z,58.72
2018-03-19T05:44:55.768Z,59.86
2018-03-19T05:45:55.765Z,58.82
2018-03-19T05:46:55.757Z,58.82
2018-03-19T05:47:55.768Z,58.82
2018-03-19T05:48:55.750Z,59.19
2018-03-19T05:49:55.747Z,59.00
2018-03-19T05:50:55.748Z,59.19
2018-03-19T05:51:55.735Z,59.48
2018-03-19T05:52:55.730Z,59.57
2018-03-19T05:53:55.717Z,59.29
2018-03-19T05:54:55.721Z,59.29
2018-03-19T05:55:55.706Z,59.10
2018-03-19T05:56:55.704Z,59.29
2018-03-19T05:57:55.706Z,59.57
2018-03-19T05:58:55.695Z,59.29
2018-03-19T05:59:56.560Z,59.29
2018-03-19T06:00:55.688Z,59.67
2018-03-19T06:01:55.676Z,59.29
2018-03-19T06:02:55.683Z,59.29
2018-03-19T06:03:55.665Z,59.29
2018-03-19T06:04:55.664Z,59.29
2018-03-19T06:05:55.654Z,59.00
2018-03-19T06:06:55.651Z,58.53
2018-03-19T06:07:55.638Z,59.10
2018-03-19T06:08:55.637Z,58.82
2018-03-19T06:09:55.629Z,59.38
2018-03-19T06:10:55.629Z,59.10
2018-03-19T06:11:55.625Z,58.82
2018-03-19T06:12:55.626Z,59.19
2018-03-19T06:13:55.609Z,59.57
2018-03-19T06:14:55.607Z,59.67
2018-03-19T06:15:55.612Z,59.76
2018-03-19T06:16:55.588Z,59.57
2018-03-19T06:17:55.590Z,59.76
2018-03-19T06:18:55.576Z,59.00
2018-03-19T06:19:55.581Z,59.10
2018-03-19T06:20:55.572Z,58.91
2018-03-19T06:21:55.570Z,58.63
2018-03-19T06:22:55.559Z,58.44
2018-03-19T06:23:55.556Z,58.25
2018-03-19T06:24:55.541Z,59.10
2018-03-19T06:25:55.552Z,58.53
2018-03-19T06:26:55.564Z,58.63
2018-03-19T06:27:55.531Z,58.91
2018-03-19T06:28:55.520Z,58.53
2018-03-19T06:29:55.524Z,58.44
2018-03-19T06:30:55.512Z,58.44
2018-03-19T06:31:55.508Z,58.44
2018-03-19T06:32:55.512Z,58.34
2018-03-19T06:33:55.552Z,58.25
2018-03-19T06:34:55.486Z,58.72
2018-03-19T06:35:55.481Z,58.25
2018-03-19T06:36:55.476Z,58.06
2018-03-19T06:37:55.479Z,58.15
2018-03-19T06:38:55.481Z,57.97
2018-03-19T06:39:55.472Z,57.78
2018-03-19T06:40:55.509Z,57.87
2018-03-19T06:41:55.457Z,58.15
2018-03-19T06:42:55.453Z,57.50
2018-03-19T06:43:55.449Z,57.40
2018-03-19T06:44:55.448Z,57.87
2018-03-19T06:45:55.461Z,57.40
2018-03-19T06:46:55.501Z,57.78
2018-03-19T06:47:55.449Z,57.78
2018-03-19T06:48:55.412Z,57.31
2018-03-19T06:49:55.403Z,57.21
2018-03-19T06:50:55.416Z,57.78
2018-03-19T06:51:55.392Z,57.78
2018-03-19T06:52:55.389Z,57.21
2018-03-19T06:53:55.407Z,57.12
2018-03-19T06:54:55.422Z,57.50
2018-03-19T06:55:55.385Z,57.31
2018-03-19T06:56:55.378Z,57.21
2018-03-19T06:57:55.370Z,57.21
2018-03-19T06:58:55.379Z,57.21
2018-03-19T06:59:55.363Z,56.86
2018-03-19T07:00:55.408Z,56.36
2018-03-19T07:01:55.354Z,56.27
2018-03-19T07:02:55.347Z,56.93
2018-03-19T07:03:55.346Z,56.74
2018-03-19T07:04:55.344Z,56.55
2018-03-19T07:05:55.328Z,56.48
2018-03-19T07:06:55.323Z,56.11
2018-03-19T07:07:55.345Z,56.30
2018-03-19T07:08:55.327Z,56.30
2018-03-19T07:09:55.307Z,55.29
2018-03-19T07:10:55.295Z,53.33
2018-03-19T07:11:55.293Z,50.73
2018-03-19T07:12:55.305Z,47.04
2018-03-19T07:13:55.280Z,45.83
2018-03-19T07:14:55.310Z,43.94
2018-03-19T07:15:55.277Z,43.56
2018-03-19T07:16:55.264Z,42.99
2018-03-19T07:17:55.268Z,42.71
2018-03-19T07:18:55.261Z,41.66
2018-03-19T07:19:55.256Z,41.59
2018-03-19T07:20:55.391Z,41.00
2018-03-19T07:21:55.259Z,41.19
2018-03-19T07:22:55.239Z,41.21
2018-03-19T07:23:55.242Z,40.83
2018-03-19T07:24:55.232Z,40.38
2018-03-19T07:25:55.237Z,39.43
2018-03-19T07:26:55.234Z,38.46
2018-03-19T07:27:55.239Z,38.28
2018-03-19T07:28:55.220Z,38.94
2018-03-19T07:29:55.269Z,39.32
2018-03-19T07:30:55.222Z,38.45
2018-03-19T07:31:55.215Z,38.94
2018-03-19T07:32:55.234Z,38.45
2018-03-19T07:33:55.326Z,38.56
2018-03-19T07:34:55.217Z,38.58
2018-03-19T07:35:55.207Z,37.18
2018-03-19T07:36:55.233Z,36.68
2018-03-19T07:37:55.230Z,36.05
2018-03-19T07:38:55.255Z,34.88
2018-03-19T07:39:55.233Z,35.11
2018-03-19T07:40:55.209Z,34.50
2018-03-19T07:41:56.063Z,34.78
2018-03-19T07:42:55.202Z,35.93
2018-03-19T07:43:55.201Z,36.04
2018-03-19T07:44:55.187Z,35.74
2018-03-19T07:45:55.206Z,35.47
2018-03-19T07:46:55.198Z,35.86
2018-03-19T07:47:55.207Z,34.46
2018-03-19T07:48:55.201Z,33.19
2018-03-19T07:49:55.197Z,34.12
2018-03-19T07:50:55.287Z,34.23
2018-03-19T07:51:55.199Z,34.86
2018-03-19T07:52:55.199Z,35.55
2018-03-19T07:53:55.200Z,35.66
2018-03-19T07:54:55.242Z,35.11
2018-03-19T07:55:55.287Z,34.16
2018-03-19T07:56:55.199Z,33.02
2018-03-19T07:57:55.202Z,33.00
2018-03-19T07:58:55.200Z,33.86
2018-03-19T08:01:24.467Z,33.76
2018-03-19T10:28:40.603Z,27.51
2018-03-19T10:29:40.596Z,26.32
2018-03-19T10:30:40.604Z,28.52
2018-03-19T10:31:40.626Z,28.72
2018-03-19T10:32:40.655Z,27.97
2018-03-19T10:33:40.664Z,27.88
2018-03-19T10:34:40.622Z,26.93
2018-03-19T10:35:40.708Z,26.81
2018-03-19T10:36:40.645Z,27.75
2018-03-19T10:37:40.657Z,28.52
2018-03-19T10:38:40.713Z,28.53
2018-03-19T10:39:40.685Z,27.60
2018-03-19T10:40:40.682Z,26.66
2018-03-19T10:41:40.739Z,25.73
2018-03-19T10:42:40.714Z,25.34
2018-03-19T10:43:40.699Z,24.63
2018-03-19T10:44:40.727Z,25.94
2018-03-19T10:45:40.724Z,27.65
2018-03-19T10:46:40.752Z,28.49
2018-03-19T10:47:40.736Z,29.64
2018-03-19T10:48:40.815Z,28.92
2018-03-19T10:49:40.746Z,28.53
2018-03-19T10:50:40.757Z,27.88
2018-03-19T10:51:40.777Z,26.74
2018-03-19T10:52:40.768Z,26.23
2018-03-19T10:53:40.788Z,28.30
2018-03-19T10:54:40.785Z,28.97
2018-03-19T10:55:40.805Z,29.90
2018-03-19T10:56:40.872Z,30.58
2018-03-19T10:57:40.824Z,31.17
2018-03-19T10:58:40.828Z,30.54
2018-03-19T10:59:40.846Z,28.82
2018-03-19T11:00:40.835Z,28.53
2018-03-19T11:01:40.880Z,28.44
2018-03-19T11:02:40.869Z,28.90
2018-03-19T11:03:40.868Z,29.57
2018-03-19T11:04:40.889Z,28.72
2018-03-19T11:05:40.897Z,28.33
2018-03-19T11:06:40.906Z,28.49
2018-03-19T11:07:40.917Z,29.81
2018-03-19T11:08:41.624Z,31.64
2018-03-19T11:09:40.931Z,30.33
2018-03-19T11:10:41.603Z,28.53
2018-03-19T11:11:40.947Z,27.87
2018-03-19T11:12:40.959Z,27.08
2018-03-19T11:13:41.611Z,28.68
2018-03-19T11:14:40.982Z,30.01
2018-03-19T11:15:40.979Z,30.28
2018-03-19T11:16:41.037Z,31.72
2018-03-19T11:17:40.992Z,31.45
2018-03-19T11:18:41.006Z,30.43
2018-03-19T11:19:41.015Z,29.66
2018-03-19T11:20:41.027Z,28.71
2018-03-19T11:21:41.030Z,28.79
2018-03-19T11:22:41.036Z,29.19
2018-03-19T11:23:41.045Z,29.08
2018-03-19T11:24:41.058Z,30.01
2018-03-19T11:25:41.061Z,30.33
2018-03-19T11:26:41.165Z,29.95
2018-03-19T11:27:41.086Z,29.20
2018-03-19T11:28:41.086Z,28.63
2018-03-19T11:29:41.102Z,28.72
2018-03-19T11:30:41.115Z,28.08
2018-03-19T11:31:41.113Z,27.31
2018-03-19T11:32:41.148Z,27.58
2018-03-19T11:33:41.173Z,28.62
2018-03-19T11:34:41.139Z,28.79
2018-03-19T11:35:41.146Z,29.64
2018-03-19T11:36:42.121Z,29.74
2018-03-19T11:37:41.149Z,29.53
2018-03-19T11:38:41.176Z,30.55
2018-03-19T11:39:41.178Z,32.53
2018-03-19T11:40:41.176Z,34.05
2018-03-19T11:41:41.189Z,34.59
2018-03-19T11:42:41.188Z,36.13
2018-03-19T11:43:41.193Z,36.42
2018-03-19T11:44:41.221Z,36.53
2018-03-19T11:45:41.210Z,35.86
2018-03-19T11:46:41.348Z,35.68
2018-03-19T11:47:41.212Z,35.49
2018-03-19T11:48:41.227Z,35.86
2018-03-19T11:49:41.244Z,35.38
2018-03-19T11:50:41.225Z,36.68
2018-03-19T11:51:41.223Z,37.16
2018-03-19T11:52:41.255Z,37.44
2018-03-19T11:53:48.387Z,36.97
2018-03-19T11:57:19.685Z,37.54
2018-03-19T15:26:15.677Z,30.24
2018-03-19T15:27:15.641Z,30.90
2018-03-19T15:28:15.645Z,30.52
2018-03-19T15:29:15.632Z,30.52
2018-03-19T15:30:15.637Z,30.43
2018-03-19T15:31:15.626Z,30.24
2018-03-19T15:32:15.627Z,30.05
2018-03-19T15:33:15.671Z,29.76
2018-03-19T15:34:15.622Z,29.86
2018-03-19T15:35:15.620Z,30.43
2018-03-19T15:36:16.615Z,29.76
2018-03-19T15:37:15.656Z,30.14
2018-03-19T15:38:15.653Z,29.76
2018-03-19T15:39:15.648Z,29.95
2018-03-19T15:40:15.601Z,29.76
2018-03-19T15:41:15.605Z,29.67
2018-03-19T15:42:15.594Z,29.57
2018-03-19T15:43:15.603Z,29.67
2018-03-19T15:44:15.613Z,29.67
2018-03-19T15:45:15.593Z,29.76
2018-03-19T15:46:15.599Z,29.95
2018-03-19T15:47:15.593Z,29.86
2018-03-19T15:48:15.586Z,29.38
2018-03-19T15:49:15.684Z,29.57
2018-03-19T15:50:15.584Z,30.14
2018-03-19T15:51:15.583Z,29.86
2018-03-19T15:52:15.594Z,30.05
2018-03-19T15:53:15.596Z,30.05
2018-03-19T15:54:15.576Z,29.76
2018-03-19T15:55:15.570Z,29.84
2018-03-19T15:56:15.577Z,29.95
2018-03-19T15:57:15.614Z,30.33
2018-03-19T15:58:15.570Z,30.71
2018-03-19T15:59:15.569Z,30.43
2018-03-19T16:00:15.556Z,30.52
2018-03-19T16:01:15.610Z,30.33
2018-03-19T16:02:15.560Z,30.41
2018-03-19T16:03:15.562Z,30.88
2018-03-19T16:04:16.123Z,30.51
2018-03-19T16:05:15.550Z,30.32
2018-03-19T16:06:15.559Z,30.22
2018-03-19T16:07:15.680Z,30.33
2018-03-19T16:08:15.554Z,30.41
2018-03-19T16:09:15.537Z,30.22
2018-03-19T16:10:15.555Z,30.32
2018-03-19T16:11:15.540Z,30.22
2018-03-19T16:12:15.538Z,29.84
2018-03-19T16:13:15.577Z,30.03
2018-03-19T16:14:15.522Z,29.94
2018-03-19T16:15:15.559Z,29.75
2018-03-19T16:16:15.528Z,29.94
2018-03-19T16:17:15.528Z,29.94
2018-03-19T16:18:15.531Z,30.03
2018-03-19T16:19:15.526Z,30.03
2018-03-19T16:20:15.522Z,30.41
2018-03-19T16:21:15.520Z,30.32
2018-03-19T16:22:15.512Z,30.32
2018-03-19T16:23:15.659Z,30.41
2018-03-19T16:24:15.505Z,30.41
2018-03-19T16:25:15.506Z,30.60
2018-03-19T16:26:15.502Z,30.13
2018-03-19T16:27:15.554Z,30.98
2018-03-19T16:28:15.498Z,30.60
2018-03-19T16:29:15.537Z,30.22
2018-03-19T16:30:15.497Z,29.94
2018-03-19T16:31:15.487Z,30.03
2018-03-19T16:32:15.501Z,29.94
2018-03-19T16:33:15.504Z,30.03
2018-03-19T16:34:15.528Z,30.03
2018-03-19T16:35:15.496Z,29.94
2018-03-19T16:36:15.476Z,30.03
2018-03-19T16:37:15.480Z,30.32
2018-03-19T16:38:15.471Z,30.60
2018-03-19T16:39:15.479Z,29.46
2018-03-19T16:40:15.616Z,29.18
2018-03-19T16:41:15.474Z,28.80
2018-03-19T16:42:15.519Z,28.61
2018-03-19T16:43:15.473Z,28.70
2018-03-19T16:44:15.467Z,29.08
2018-03-19T16:45:15.468Z,28.80
2018-03-19T16:46:15.487Z,29.56
2018-03-19T16:47:15.458Z,29.84
2018-03-19T16:48:15.450Z,30.03
2018-03-19T16:49:15.445Z,29.94
2018-03-19T16:50:15.452Z,29.94
2018-03-19T16:51:15.451Z,28.99
2018-03-19T16:52:15.437Z,29.08
2018-03-19T16:53:15.442Z,29.46
2018-03-19T16:54:15.437Z,29.56
2018-03-19T16:55:15.443Z,28.70
2018-03-19T16:56:15.438Z,28.70
2018-03-19T16:57:15.512Z,29.18
2018-03-19T16:58:15.432Z,28.89
2018-03-19T16:59:15.428Z,29.56
2018-03-19T17:00:15.430Z,29.65
2018-03-19T17:01:15.421Z,29.37
2018-03-19T17:02:15.422Z,29.84
2018-03-19T17:03:15.424Z,29.75
2018-03-19T17:04:15.417Z,29.46
2018-03-19T17:05:15.417Z,29.65
2018-03-19T17:06:15.410Z,29.84
2018-03-19T17:07:15.426Z,30.03
2018-03-19T17:08:15.403Z,29.94
2018-03-19T17:09:15.407Z,29.84
2018-03-19T17:10:15.399Z,29.84
2018-03-19T17:11:15.396Z,30.22
2018-03-19T17:12:15.405Z,30.41
2018-03-19T17:13:15.384Z,30.51
2018-03-19T17:14:15.389Z,31.26
2018-03-19T17:15:15.396Z,31.64
2018-03-19T17:16:15.387Z,31.64
2018-03-19T17:17:15.386Z,31.45
2018-03-19T17:18:15.443Z,31.36
2018-03-19T17:19:15.394Z,31.74
2018-03-19T17:20:15.375Z,31.64
2018-03-19T17:21:15.373Z,31.64
2018-03-19T17:22:15.375Z,31.64
2018-03-19T17:23:16.132Z,31.26
2018-03-19T17:24:15.362Z,31.83
2018-03-19T17:25:15.361Z,32.31
2018-03-19T17:26:15.376Z,33.44
2018-03-19T17:27:15.363Z,32.78
2018-03-19T17:28:15.356Z,33.16
2018-03-19T17:29:15.353Z,32.97
2018-03-19T17:30:15.365Z,32.87
2018-03-19T17:31:15.378Z,33.73
2018-03-19T17:32:15.350Z,33.52
2018-03-19T17:33:15.351Z,33.43
2018-03-19T17:34:15.341Z,33.73
2018-03-19T17:35:15.326Z,34.00
2018-03-19T17:36:15.367Z,34.28
2018-03-19T17:37:15.335Z,34.47
2018-03-19T17:38:15.350Z,34.28
2018-03-19T17:39:15.335Z,34.47
2018-03-19T17:40:15.323Z,34.28
2018-03-19T17:41:15.321Z,34.56
2018-03-19T17:42:15.318Z,35.03
2018-03-19T17:43:15.330Z,35.13
2018-03-19T17:44:15.311Z,35.13
2018-03-19T17:45:15.331Z,35.13
2018-03-19T17:46:15.307Z,35.13
2018-03-19T17:47:15.305Z,35.32
2018-03-19T17:48:15.309Z,35.32
2018-03-19T17:49:15.308Z,35.41
2018-03-19T17:50:15.303Z,35.41
2018-03-19T17:51:15.300Z,35.60
2018-03-19T17:52:15.297Z,35.60
2018-03-19T17:53:15.282Z,35.41
2018-03-19T17:54:15.296Z,36.08
2018-03-19T17:55:15.289Z,36.65
2018-03-19T17:56:15.291Z,36.36
2018-03-19T17:57:15.369Z,36.74
2018-03-19T17:58:15.276Z,36.55
2018-03-19T17:59:15.280Z,36.93
2018-03-19T18:00:15.272Z,37.02
2018-03-19T18:01:15.262Z,36.93
2018-03-19T18:02:15.269Z,37.50
2018-03-19T18:03:15.268Z,37.02
2018-03-19T18:04:15.267Z,37.21
2018-03-19T18:05:15.253Z,37.02
2018-03-19T18:06:15.249Z,37.59
2018-03-19T18:07:15.257Z,37.31
2018-03-19T18:08:15.257Z,37.59
2018-03-19T18:09:15.267Z,37.59
2018-03-19T18:10:16.136Z,37.59
2018-03-19T18:11:15.248Z,36.83
2018-03-19T18:12:15.247Z,37.78
2018-03-19T18:13:15.238Z,37.95
2018-03-19T18:14:15.228Z,37.76
2018-03-19T18:15:15.240Z,37.76
2018-03-19T18:16:15.238Z,38.33
2018-03-19T18:17:15.233Z,37.76
2018-03-19T18:18:15.226Z,37.86
2018-03-19T18:19:15.221Z,37.76
2018-03-19T18:20:15.224Z,38.14
2018-03-19T18:21:15.224Z,37.76
2018-03-19T18:22:15.215Z,37.76
2018-03-19T18:23:15.215Z,37.86
2018-03-19T18:24:15.209Z,37.86
2018-03-19T18:25:15.229Z,37.76
2018-03-19T18:26:15.198Z,37.86
2018-03-19T18:27:15.212Z,37.76
2018-03-19T18:28:16.136Z,38.24
2018-03-19T18:29:15.190Z,38.62
2018-03-19T18:30:15.183Z,39.00
2018-03-19T18:31:15.187Z,39.47
2018-03-19T18:32:15.190Z,39.47
2018-03-19T18:33:15.195Z,39.00
2018-03-19T18:34:15.195Z,39.18
2018-03-19T18:35:15.172Z,39.18
2018-03-19T18:36:15.180Z,38.71
2018-03-19T18:37:15.176Z,39.18
2018-03-19T18:38:15.166Z,39.28
2018-03-19T18:39:15.166Z,39.37
2018-03-19T18:40:15.167Z,38.52
2018-03-19T18:41:15.162Z,38.90
2018-03-19T18:42:15.164Z,38.52
2018-03-19T18:43:15.174Z,38.52
2018-03-19T18:44:15.150Z,38.43
2018-03-19T18:45:15.150Z,39.18
2018-03-19T18:46:15.154Z,38.90
2018-03-19T18:47:15.143Z,39.28
2018-03-19T18:48:15.139Z,39.00
2018-03-19T18:49:15.147Z,39.09
2018-03-19T18:50:15.130Z,38.81
2018-03-19T18:51:15.638Z,39.00